sensor_id;sensor_type;location;lat;lon;timestamp;P1;durP1;ratioP1;P2;durP2;ratioP2
60847;SDS011;46681;47.696;9.140;2022-09-06T00:01:08;6.97;;;2.50;;
60847;SDS011;46681;47.696;9.140;2022-09-06T00:03:42;7.40;;;2.70;;
60847;SDS011;46681;47.696;9.140;2022-09-06T00:06:12;6.72;;;2.42;;
60847;SDS011;46681;47.696;9.140;2022-09-06T00:08:41;7.15;;;2.58;;
60847;SDS011;46681;47.696;9.140;2022-09-06T00:11:11;8.65;;;2.75;;
60847;SDS011;46681;47.696;9.140;2022-09-06T00:13:42;8.00;;;2.60;;
60847;SDS011;46681;47.696;9.140;2022-09-06T00:16:17;7.35;;;2.70;;
60847;SDS011;46681;47.696;9.140;2022-09-06T00:18:46;7.43;;;2.40;;
60847;SDS011;46681;47.696;9.140;2022-09-06T00:21:19;7.93;;;2.60;;
60847;SDS011;46681;47.696;9.140;2022-09-06T00:23:46;7.75;;;2.47;;
60847;SDS011;46681;47.696;9.140;2022-09-06T00:26:12;7.47;;;2.60;;
60847;SDS011;46681;47.696;9.140;2022-09-06T00:28:42;7.85;;;2.35;;
60847;SDS011;46681;47.696;9.140;2022-09-06T00:31:13;7.28;;;2.50;;
60847;SDS011;46681;47.696;9.140;2022-09-06T00:33:42;8.75;;;2.50;;
60847;SDS011;46681;47.696;9.140;2022-09-06T00:36:11;9.77;;;2.60;;
60847;SDS011;46681;47.696;9.140;2022-09-06T00:38:40;8.05;;;2.60;;
60847;SDS011;46681;47.696;9.140;2022-09-06T00:41:12;7.28;;;2.53;;
60847;SDS011;46681;47.696;9.140;2022-09-06T00:43:45;9.63;;;2.70;;
60847;SDS011;46681;47.696;9.140;2022-09-06T00:46:13;9.02;;;2.63;;
60847;SDS011;46681;47.696;9.140;2022-09-06T00:48:48;7.03;;;2.42;;
60847;SDS011;46681;47.696;9.140;2022-09-06T00:51:20;7.53;;;2.50;;
60847;SDS011;46681;47.696;9.140;2022-09-06T00:53:48;7.57;;;2.35;;
60847;SDS011;46681;47.696;9.140;2022-09-06T00:56:15;8.30;;;2.58;;
60847;SDS011;46681;47.696;9.140;2022-09-06T00:58:43;8.80;;;2.60;;
60847;SDS011;46681;47.696;9.140;2022-09-06T01:01:11;7.70;;;2.80;;
60847;SDS011;46681;47.696;9.140;2022-09-06T01:03:43;7.72;;;2.63;;
60847;SDS011;46681;47.696;9.140;2022-09-06T01:15:19;8.40;;;2.80;;
60847;SDS011;46681;47.696;9.140;2022-09-06T01:21:00;7.38;;;2.53;;
60847;SDS011;46681;47.696;9.140;2022-09-06T01:26:14;6.75;;;2.60;;
60847;SDS011;46681;47.696;9.140;2022-09-06T01:28:51;7.25;;;2.70;;
60847;SDS011;46681;47.696;9.140;2022-09-06T01:39:29;7.72;;;2.63;;
60847;SDS011;46681;47.696;9.140;2022-09-06T01:42:04;7.97;;;2.60;;
60847;SDS011;46681;47.696;9.140;2022-09-06T01:44:44;7.75;;;2.70;;
60847;SDS011;46681;47.696;9.140;2022-09-06T01:50:11;7.70;;;2.80;;
60847;SDS011;46681;47.696;9.140;2022-09-06T01:53:09;8.98;;;3.15;;
60847;SDS011;46681;47.696;9.140;2022-09-06T01:58:52;8.13;;;2.70;;
60847;SDS011;46681;47.696;9.140;2022-09-06T02:01:37;7.35;;;2.58;;
60847;SDS011;46681;47.696;9.140;2022-09-06T02:07:11;7.78;;;2.95;;
60847;SDS011;46681;47.696;9.140;2022-09-06T02:09:48;9.23;;;2.75;;
60847;SDS011;46681;47.696;9.140;2022-09-06T02:12:30;8.98;;;3.00;;
60847;SDS011;46681;47.696;9.140;2022-09-06T02:15:00;8.45;;;2.80;;
60847;SDS011;46681;47.696;9.140;2022-09-06T02:17:57;8.18;;;2.58;;
60847;SDS011;46681;47.696;9.140;2022-09-06T02:20:32;7.95;;;2.70;;
60847;SDS011;46681;47.696;9.140;2022-09-06T02:23:06;8.30;;;2.70;;
60847;SDS011;46681;47.696;9.140;2022-09-06T02:28:20;8.65;;;2.85;;
60847;SDS011;46681;47.696;9.140;2022-09-06T02:30:49;7.10;;;2.50;;
60847;SDS011;46681;47.696;9.140;2022-09-06T02:33:23;7.35;;;2.58;;
60847;SDS011;46681;47.696;9.140;2022-09-06T02:35:55;7.60;;;2.60;;
60847;SDS011;46681;47.696;9.140;2022-09-06T02:38:32;9.07;;;2.67;;
60847;SDS011;46681;47.696;9.140;2022-09-06T02:41:06;7.63;;;2.88;;
60847;SDS011;46681;47.696;9.140;2022-09-06T02:43:32;7.25;;;2.63;;
60847;SDS011;46681;47.696;9.140;2022-09-06T02:45:58;9.20;;;2.80;;
60847;SDS011;46681;47.696;9.140;2022-09-06T02:48:24;8.65;;;2.85;;
60847;SDS011;46681;47.696;9.140;2022-09-06T02:50:56;7.68;;;2.85;;
60847;SDS011;46681;47.696;9.140;2022-09-06T02:53:29;8.48;;;2.78;;
60847;SDS011;46681;47.696;9.140;2022-09-06T02:56:04;8.80;;;2.85;;
60847;SDS011;46681;47.696;9.140;2022-09-06T02:58:30;8.00;;;2.90;;
60847;SDS011;46681;47.696;9.140;2022-09-06T03:00:57;8.10;;;2.83;;
60847;SDS011;46681;47.696;9.140;2022-09-06T03:03:26;8.40;;;2.80;;
60847;SDS011;46681;47.696;9.140;2022-09-06T03:05:54;8.60;;;3.03;;
60847;SDS011;46681;47.696;9.140;2022-09-06T03:08:20;8.77;;;2.90;;
60847;SDS011;46681;47.696;9.140;2022-09-06T03:10:50;8.80;;;3.13;;
60847;SDS011;46681;47.696;9.140;2022-09-06T03:13:18;8.40;;;3.03;;
60847;SDS011;46681;47.696;9.140;2022-09-06T03:15:50;9.15;;;3.10;;
60847;SDS011;46681;47.696;9.140;2022-09-06T03:18:22;8.32;;;3.10;;
60847;SDS011;46681;47.696;9.140;2022-09-06T03:20:49;9.23;;;2.78;;
60847;SDS011;46681;47.696;9.140;2022-09-06T03:23:16;9.32;;;3.10;;
60847;SDS011;46681;47.696;9.140;2022-09-06T03:25:47;8.18;;;2.88;;
60847;SDS011;46681;47.696;9.140;2022-09-06T03:28:16;9.60;;;2.80;;
60847;SDS011;46681;47.696;9.140;2022-09-06T03:30:44;8.40;;;2.90;;
60847;SDS011;46681;47.696;9.140;2022-09-06T03:33:13;9.18;;;2.83;;
60847;SDS011;46681;47.696;9.140;2022-09-06T03:35:45;8.60;;;3.03;;
60847;SDS011;46681;47.696;9.140;2022-09-06T03:38:13;8.68;;;3.10;;
60847;SDS011;46681;47.696;9.140;2022-09-06T03:40:39;9.65;;;3.28;;
60847;SDS011;46681;47.696;9.140;2022-09-06T03:43:05;9.30;;;3.08;;
60847;SDS011;46681;47.696;9.140;2022-09-06T03:45:30;8.73;;;3.30;;
60847;SDS011;46681;47.696;9.140;2022-09-06T03:48:04;7.65;;;2.83;;
60847;SDS011;46681;47.696;9.140;2022-09-06T03:50:31;9.10;;;2.90;;
60847;SDS011;46681;47.696;9.140;2022-09-06T03:52:57;9.70;;;3.00;;
60847;SDS011;46681;47.696;9.140;2022-09-06T03:55:23;8.57;;;3.20;;
60847;SDS011;46681;47.696;9.140;2022-09-06T03:57:50;8.25;;;2.90;;
60847;SDS011;46681;47.696;9.140;2022-09-06T04:00:17;9.43;;;2.97;;
60847;SDS011;46681;47.696;9.140;2022-09-06T04:02:46;7.25;;;2.63;;
60847;SDS011;46681;47.696;9.140;2022-09-06T04:05:11;8.95;;;3.05;;
60847;SDS011;46681;47.696;9.140;2022-09-06T04:07:37;8.60;;;2.80;;
60847;SDS011;46681;47.696;9.140;2022-09-06T04:10:09;8.43;;;3.10;;
60847;SDS011;46681;47.696;9.140;2022-09-06T04:12:34;9.05;;;3.03;;
60847;SDS011;46681;47.696;9.140;2022-09-06T04:15:07;8.30;;;3.00;;
60847;SDS011;46681;47.696;9.140;2022-09-06T04:17:33;8.13;;;2.80;;
60847;SDS011;46681;47.696;9.140;2022-09-06T04:19:58;9.02;;;3.15;;
60847;SDS011;46681;47.696;9.140;2022-09-06T04:22:24;8.50;;;2.80;;
60847;SDS011;46681;47.696;9.140;2022-09-06T04:24:51;8.48;;;3.03;;
60847;SDS011;46681;47.696;9.140;2022-09-06T04:27:24;8.38;;;3.08;;
60847;SDS011;46681;47.696;9.140;2022-09-06T04:29:57;8.30;;;2.95;;
60847;SDS011;46681;47.696;9.140;2022-09-06T04:32:23;8.60;;;3.03;;
60847;SDS011;46681;47.696;9.140;2022-09-06T04:34:51;8.43;;;2.80;;
60847;SDS011;46681;47.696;9.140;2022-09-06T04:37:27;8.50;;;2.83;;
60847;SDS011;46681;47.696;9.140;2022-09-06T04:39:56;8.00;;;2.80;;
60847;SDS011;46681;47.696;9.140;2022-09-06T04:42:25;8.90;;;3.28;;
60847;SDS011;46681;47.696;9.140;2022-09-06T04:44:55;8.32;;;3.20;;
60847;SDS011;46681;47.696;9.140;2022-09-06T04:47:20;8.77;;;3.03;;
60847;SDS011;46681;47.696;9.140;2022-09-06T04:49:46;9.15;;;2.97;;
60847;SDS011;46681;47.696;9.140;2022-09-06T04:52:14;8.32;;;2.97;;
60847;SDS011;46681;47.696;9.140;2022-09-06T04:54:40;9.27;;;3.28;;
60847;SDS011;46681;47.696;9.140;2022-09-06T04:57:10;7.93;;;3.05;;
60847;SDS011;46681;47.696;9.140;2022-09-06T04:59:36;7.97;;;2.70;;
60847;SDS011;46681;47.696;9.140;2022-09-06T05:02:01;8.70;;;3.17;;
60847;SDS011;46681;47.696;9.140;2022-09-06T05:04:32;9.85;;;3.00;;
60847;SDS011;46681;47.696;9.140;2022-09-06T05:09:48;9.38;;;3.20;;
60847;SDS011;46681;47.696;9.140;2022-09-06T05:12:25;9.10;;;2.70;;
60847;SDS011;46681;47.696;9.140;2022-09-06T05:14:54;8.20;;;2.90;;
60847;SDS011;46681;47.696;9.140;2022-09-06T05:17:53;9.75;;;2.80;;
60847;SDS011;46681;47.696;9.140;2022-09-06T05:20:33;9.93;;;3.40;;
60847;SDS011;46681;47.696;9.140;2022-09-06T05:23:06;11.98;;;3.60;;
60847;SDS011;46681;47.696;9.140;2022-09-06T05:25:36;10.57;;;3.40;;
60847;SDS011;46681;47.696;9.140;2022-09-06T05:31:05;9.52;;;3.40;;
60847;SDS011;46681;47.696;9.140;2022-09-06T05:33:58;9.80;;;3.05;;
60847;SDS011;46681;47.696;9.140;2022-09-06T05:36:26;10.52;;;3.38;;
60847;SDS011;46681;47.696;9.140;2022-09-06T05:39:04;10.68;;;3.47;;
60847;SDS011;46681;47.696;9.140;2022-09-06T05:41:32;9.93;;;3.45;;
60847;SDS011;46681;47.696;9.140;2022-09-06T05:43:58;9.82;;;3.13;;
60847;SDS011;46681;47.696;9.140;2022-09-06T05:46:40;10.48;;;3.15;;
60847;SDS011;46681;47.696;9.140;2022-09-06T05:49:22;10.65;;;3.28;;
60847;SDS011;46681;47.696;9.140;2022-09-06T05:51:52;9.60;;;3.00;;
60847;SDS011;46681;47.696;9.140;2022-09-06T05:54:19;9.60;;;3.33;;
60847;SDS011;46681;47.696;9.140;2022-09-06T05:56:48;11.20;;;3.70;;
60847;SDS011;46681;47.696;9.140;2022-09-06T05:59:16;10.55;;;3.30;;
60847;SDS011;46681;47.696;9.140;2022-09-06T06:01:48;9.75;;;3.30;;
60847;SDS011;46681;47.696;9.140;2022-09-06T06:04:19;9.68;;;3.28;;
60847;SDS011;46681;47.696;9.140;2022-09-06T06:06:49;9.07;;;3.20;;
60847;SDS011;46681;47.696;9.140;2022-09-06T06:09:18;10.40;;;3.15;;
60847;SDS011;46681;47.696;9.140;2022-09-06T06:11:52;9.60;;;3.38;;
60847;SDS011;46681;47.696;9.140;2022-09-06T06:17:40;12.70;;;3.20;;
60847;SDS011;46681;47.696;9.140;2022-09-06T06:20:12;9.68;;;3.10;;
60847;SDS011;46681;47.696;9.140;2022-09-06T06:22:44;10.32;;;3.15;;
60847;SDS011;46681;47.696;9.140;2022-09-06T06:25:10;8.93;;;2.97;;
60847;SDS011;46681;47.696;9.140;2022-09-06T06:27:35;8.93;;;2.78;;
60847;SDS011;46681;47.696;9.140;2022-09-06T06:30:06;10.52;;;3.10;;
60847;SDS011;46681;47.696;9.140;2022-09-06T06:32:42;8.63;;;2.70;;
60847;SDS011;46681;47.696;9.140;2022-09-06T06:35:14;8.63;;;2.85;;
60847;SDS011;46681;47.696;9.140;2022-09-06T06:38:02;9.48;;;3.00;;
60847;SDS011;46681;47.696;9.140;2022-09-06T06:40:28;9.73;;;3.00;;
60847;SDS011;46681;47.696;9.140;2022-09-06T06:42:54;9.13;;;2.70;;
60847;SDS011;46681;47.696;9.140;2022-09-06T06:45:20;8.70;;;2.80;;
60847;SDS011;46681;47.696;9.140;2022-09-06T06:47:54;9.82;;;3.00;;
60847;SDS011;46681;47.696;9.140;2022-09-06T06:50:45;8.52;;;2.60;;
60847;SDS011;46681;47.696;9.140;2022-09-06T06:56:27;7.78;;;2.60;;
60847;SDS011;46681;47.696;9.140;2022-09-06T06:59:02;9.40;;;2.78;;
60847;SDS011;46681;47.696;9.140;2022-09-06T07:01:35;7.95;;;2.55;;
60847;SDS011;46681;47.696;9.140;2022-09-06T07:04:05;8.57;;;2.50;;
60847;SDS011;46681;47.696;9.140;2022-09-06T07:06:55;8.40;;;2.55;;
60847;SDS011;46681;47.696;9.140;2022-09-06T07:09:21;9.50;;;2.60;;
60847;SDS011;46681;47.696;9.140;2022-09-06T07:11:52;9.05;;;2.70;;
60847;SDS011;46681;47.696;9.140;2022-09-06T07:14:20;8.90;;;2.70;;
60847;SDS011;46681;47.696;9.140;2022-09-06T07:16:46;9.45;;;2.63;;
60847;SDS011;46681;47.696;9.140;2022-09-06T07:19:11;8.75;;;2.45;;
60847;SDS011;46681;47.696;9.140;2022-09-06T07:21:37;8.55;;;2.45;;
60847;SDS011;46681;47.696;9.140;2022-09-06T07:24:06;11.15;;;2.80;;
60847;SDS011;46681;47.696;9.140;2022-09-06T07:26:40;11.32;;;3.15;;
60847;SDS011;46681;47.696;9.140;2022-09-06T07:29:07;10.60;;;2.47;;
60847;SDS011;46681;47.696;9.140;2022-09-06T07:31:41;8.70;;;2.50;;
60847;SDS011;46681;47.696;9.140;2022-09-06T07:34:07;10.05;;;2.50;;
60847;SDS011;46681;47.696;9.140;2022-09-06T07:36:37;9.38;;;2.60;;
60847;SDS011;46681;47.696;9.140;2022-09-06T07:39:08;8.82;;;2.50;;
60847;SDS011;46681;47.696;9.140;2022-09-06T07:41:41;12.93;;;3.20;;
60847;SDS011;46681;47.696;9.140;2022-09-06T07:44:26;10.95;;;2.95;;
60847;SDS011;46681;47.696;9.140;2022-09-06T07:47:03;15.90;;;2.92;;
60847;SDS011;46681;47.696;9.140;2022-09-06T07:49:39;11.35;;;2.53;;
60847;SDS011;46681;47.696;9.140;2022-09-06T07:52:13;9.90;;;2.72;;
60847;SDS011;46681;47.696;9.140;2022-09-06T07:54:41;9.77;;;2.60;;
60847;SDS011;46681;47.696;9.140;2022-09-06T07:57:09;9.63;;;2.50;;
60847;SDS011;46681;47.696;9.140;2022-09-06T07:59:48;9.70;;;2.30;;
60847;SDS011;46681;47.696;9.140;2022-09-06T08:02:32;9.05;;;2.30;;
60847;SDS011;46681;47.696;9.140;2022-09-06T08:07:49;8.68;;;2.30;;
60847;SDS011;46681;47.696;9.140;2022-09-06T08:10:23;12.23;;;2.60;;
60847;SDS011;46681;47.696;9.140;2022-09-06T08:12:57;9.80;;;2.22;;
60847;SDS011;46681;47.696;9.140;2022-09-06T08:16:02;9.02;;;2.10;;
60847;SDS011;46681;47.696;9.140;2022-09-06T08:22:02;10.43;;;2.10;;
60847;SDS011;46681;47.696;9.140;2022-09-06T08:24:28;7.63;;;1.98;;
60847;SDS011;46681;47.696;9.140;2022-09-06T08:27:11;7.78;;;1.92;;
60847;SDS011;46681;47.696;9.140;2022-09-06T08:29:49;8.65;;;2.10;;
60847;SDS011;46681;47.696;9.140;2022-09-06T08:32:24;7.60;;;2.00;;
60847;SDS011;46681;47.696;9.140;2022-09-06T08:35:02;7.50;;;2.10;;
60847;SDS011;46681;47.696;9.140;2022-09-06T08:37:44;9.25;;;2.20;;
60847;SDS011;46681;47.696;9.140;2022-09-06T08:40:14;7.93;;;2.10;;
60847;SDS011;46681;47.696;9.140;2022-09-06T08:43:11;9.18;;;2.55;;
60847;SDS011;46681;47.696;9.140;2022-09-06T08:45:54;7.30;;;2.17;;
60847;SDS011;46681;47.696;9.140;2022-09-06T08:48:28;8.73;;;2.03;;
60847;SDS011;46681;47.696;9.140;2022-09-06T08:54:17;9.38;;;2.13;;
60847;SDS011;46681;47.696;9.140;2022-09-06T09:00:19;8.18;;;2.03;;
60847;SDS011;46681;47.696;9.140;2022-09-06T09:03:16;8.05;;;2.10;;
60847;SDS011;46681;47.696;9.140;2022-09-06T09:06:06;8.00;;;1.98;;
60847;SDS011;46681;47.696;9.140;2022-09-06T09:11:57;7.85;;;2.17;;
60847;SDS011;46681;47.696;9.140;2022-09-06T09:14:57;7.60;;;2.00;;
60847;SDS011;46681;47.696;9.140;2022-09-06T09:18:09;6.45;;;1.95;;
60847;SDS011;46681;47.696;9.140;2022-09-06T09:21:17;7.95;;;2.05;;
60847;SDS011;46681;47.696;9.140;2022-09-06T09:24:07;6.57;;;1.85;;
60847;SDS011;46681;47.696;9.140;2022-09-06T09:38:58;9.38;;;2.05;;
60847;SDS011;46681;47.696;9.140;2022-09-06T09:41:44;8.20;;;1.90;;
60847;SDS011;46681;47.696;9.140;2022-09-06T09:47:51;7.00;;;1.77;;
60847;SDS011;46681;47.696;9.140;2022-09-06T09:50:54;9.35;;;1.80;;
60847;SDS011;46681;47.696;9.140;2022-09-06T09:53:27;7.03;;;2.05;;
60847;SDS011;46681;47.696;9.140;2022-09-06T09:55:54;7.38;;;2.10;;
60847;SDS011;46681;47.696;9.140;2022-09-06T09:58:34;7.00;;;1.80;;
60847;SDS011;46681;47.696;9.140;2022-09-06T10:01:28;6.88;;;1.85;;
60847;SDS011;46681;47.696;9.140;2022-09-06T10:07:29;8.25;;;1.88;;
60847;SDS011;46681;47.696;9.140;2022-09-06T10:13:53;5.87;;;1.87;;
60847;SDS011;46681;47.696;9.140;2022-09-06T10:16:56;6.88;;;1.98;;
60847;SDS011;46681;47.696;9.140;2022-09-06T10:22:34;8.85;;;2.15;;
60847;SDS011;46681;47.696;9.140;2022-09-06T10:28:39;6.63;;;2.00;;
60847;SDS011;46681;47.696;9.140;2022-09-06T10:46:43;9.25;;;2.72;;
60847;SDS011;46681;47.696;9.140;2022-09-06T10:52:49;7.53;;;2.20;;
60847;SDS011;46681;47.696;9.140;2022-09-06T10:59:12;10.82;;;2.40;;
60847;SDS011;46681;47.696;9.140;2022-09-06T11:05:19;9.35;;;2.47;;
60847;SDS011;46681;47.696;9.140;2022-09-06T11:29:47;10.00;;;2.92;;
60847;SDS011;46681;47.696;9.140;2022-09-06T11:32:39;9.82;;;3.00;;
60847;SDS011;46681;47.696;9.140;2022-09-06T11:35:40;10.88;;;3.05;;
60847;SDS011;46681;47.696;9.140;2022-09-06T11:42:08;10.35;;;3.05;;
60847;SDS011;46681;47.696;9.140;2022-09-06T11:47:48;10.38;;;3.10;;
60847;SDS011;46681;47.696;9.140;2022-09-06T11:53:24;10.13;;;3.08;;
60847;SDS011;46681;47.696;9.140;2022-09-06T11:56:29;10.82;;;3.25;;
60847;SDS011;46681;47.696;9.140;2022-09-06T12:07:24;9.70;;;3.00;;
60847;SDS011;46681;47.696;9.140;2022-09-06T12:12:57;10.70;;;3.20;;
60847;SDS011;46681;47.696;9.140;2022-09-06T12:15:30;10.13;;;3.10;;
60847;SDS011;46681;47.696;9.140;2022-09-06T12:24:50;9.13;;;3.00;;
60847;SDS011;46681;47.696;9.140;2022-09-06T12:33:29;9.07;;;2.50;;
60847;SDS011;46681;47.696;9.140;2022-09-06T12:45:49;9.77;;;2.80;;
60847;SDS011;46681;47.696;9.140;2022-09-06T12:51:27;10.85;;;2.78;;
60847;SDS011;46681;47.696;9.140;2022-09-06T12:53:58;10.48;;;2.95;;
60847;SDS011;46681;47.696;9.140;2022-09-06T12:57:10;9.35;;;2.45;;
60847;SDS011;46681;47.696;9.140;2022-09-06T13:00:08;11.25;;;2.70;;
60847;SDS011;46681;47.696;9.140;2022-09-06T13:03:37;9.60;;;2.88;;
60847;SDS011;46681;47.696;9.140;2022-09-06T13:06:41;11.18;;;2.78;;
60847;SDS011;46681;47.696;9.140;2022-09-06T13:09:56;11.02;;;3.00;;
60847;SDS011;46681;47.696;9.140;2022-09-06T13:12:47;11.43;;;2.90;;
60847;SDS011;46681;47.696;9.140;2022-09-06T13:15:53;11.18;;;3.20;;
60847;SDS011;46681;47.696;9.140;2022-09-06T13:21:09;9.77;;;2.97;;
60847;SDS011;46681;47.696;9.140;2022-09-06T13:23:58;11.23;;;3.17;;
60847;SDS011;46681;47.696;9.140;2022-09-06T13:26:54;8.85;;;3.13;;
60847;SDS011;46681;47.696;9.140;2022-09-06T13:33:04;10.32;;;3.25;;
60847;SDS011;46681;47.696;9.140;2022-09-06T13:35:42;10.75;;;3.25;;
60847;SDS011;46681;47.696;9.140;2022-09-06T13:38:39;9.73;;;2.85;;
60847;SDS011;46681;47.696;9.140;2022-09-06T13:49:53;9.45;;;2.60;;
60847;SDS011;46681;47.696;9.140;2022-09-06T13:53:08;9.82;;;2.67;;
60847;SDS011;46681;47.696;9.140;2022-09-06T13:58:41;8.80;;;2.53;;
60847;SDS011;46681;47.696;9.140;2022-09-06T14:01:26;8.05;;;2.30;;
60847;SDS011;46681;47.696;9.140;2022-09-06T14:04:27;8.10;;;2.40;;
60847;SDS011;46681;47.696;9.140;2022-09-06T14:13:38;8.90;;;2.38;;
60847;SDS011;46681;47.696;9.140;2022-09-06T14:32:04;8.05;;;2.20;;
60847;SDS011;46681;47.696;9.140;2022-09-06T14:34:48;8.05;;;2.20;;
60847;SDS011;46681;47.696;9.140;2022-09-06T14:46:42;8.60;;;2.30;;
60847;SDS011;46681;47.696;9.140;2022-09-06T14:55:23;8.23;;;2.10;;
60847;SDS011;46681;47.696;9.140;2022-09-06T15:01:13;7.57;;;2.08;;
60847;SDS011;46681;47.696;9.140;2022-09-06T15:07:07;8.10;;;2.03;;
60847;SDS011;46681;47.696;9.140;2022-09-06T15:12:59;7.18;;;2.20;;
60847;SDS011;46681;47.696;9.140;2022-09-06T15:18:54;8.23;;;2.13;;
60847;SDS011;46681;47.696;9.140;2022-09-06T15:24:45;7.53;;;2.20;;
60847;SDS011;46681;47.696;9.140;2022-09-06T15:36:48;9.60;;;2.10;;
60847;SDS011;46681;47.696;9.140;2022-09-06T15:39:55;6.57;;;1.90;;
60847;SDS011;46681;47.696;9.140;2022-09-06T15:42:31;9.50;;;2.50;;
60847;SDS011;46681;47.696;9.140;2022-09-06T15:48:11;8.45;;;2.15;;
60847;SDS011;46681;47.696;9.140;2022-09-06T15:50:56;8.18;;;1.88;;
60847;SDS011;46681;47.696;9.140;2022-09-06T15:53:47;5.65;;;1.88;;
60847;SDS011;46681;47.696;9.140;2022-09-06T15:56:27;9.57;;;2.03;;
60847;SDS011;46681;47.696;9.140;2022-09-06T16:05:04;8.13;;;2.10;;
60847;SDS011;46681;47.696;9.140;2022-09-06T16:10:37;7.75;;;2.00;;
60847;SDS011;46681;47.696;9.140;2022-09-06T16:13:12;7.75;;;2.00;;
60847;SDS011;46681;47.696;9.140;2022-09-06T16:21:49;8.38;;;1.90;;
60847;SDS011;46681;47.696;9.140;2022-09-06T16:24:20;8.15;;;1.80;;
60847;SDS011;46681;47.696;9.140;2022-09-06T16:27:02;7.87;;;1.90;;
60847;SDS011;46681;47.696;9.140;2022-09-06T16:32:33;7.43;;;2.13;;
60847;SDS011;46681;47.696;9.140;2022-09-06T16:37:55;7.35;;;2.08;;
60847;SDS011;46681;47.696;9.140;2022-09-06T16:40:32;7.50;;;2.15;;
60847;SDS011;46681;47.696;9.140;2022-09-06T16:42:59;7.57;;;2.00;;
60847;SDS011;46681;47.696;9.140;2022-09-06T16:48:20;6.78;;;1.90;;
60847;SDS011;46681;47.696;9.140;2022-09-06T16:50:49;8.20;;;2.13;;
60847;SDS011;46681;47.696;9.140;2022-09-06T16:56:04;7.82;;;2.00;;
60847;SDS011;46681;47.696;9.140;2022-09-06T16:58:30;8.05;;;2.15;;
60847;SDS011;46681;47.696;9.140;2022-09-06T17:01:25;6.70;;;1.98;;
60847;SDS011;46681;47.696;9.140;2022-09-06T17:06:52;5.65;;;1.80;;
60847;SDS011;46681;47.696;9.140;2022-09-06T17:09:19;7.47;;;2.00;;
60847;SDS011;46681;47.696;9.140;2022-09-06T17:11:53;8.20;;;2.05;;
60847;SDS011;46681;47.696;9.140;2022-09-06T17:14:45;7.40;;;2.03;;
60847;SDS011;46681;47.696;9.140;2022-09-06T17:17:20;8.00;;;1.98;;
60847;SDS011;46681;47.696;9.140;2022-09-06T17:19:50;7.05;;;2.00;;
60847;SDS011;46681;47.696;9.140;2022-09-06T17:22:23;8.18;;;2.47;;
60847;SDS011;46681;47.696;9.140;2022-09-06T17:24:50;8.68;;;2.25;;
60847;SDS011;46681;47.696;9.140;2022-09-06T17:27:36;9.02;;;2.10;;
60847;SDS011;46681;47.696;9.140;2022-09-06T17:30:20;6.53;;;1.80;;
60847;SDS011;46681;47.696;9.140;2022-09-06T17:33:01;8.25;;;2.15;;
60847;SDS011;46681;47.696;9.140;2022-09-06T17:35:36;7.13;;;2.00;;
60847;SDS011;46681;47.696;9.140;2022-09-06T17:38:06;7.03;;;2.13;;
60847;SDS011;46681;47.696;9.140;2022-09-06T17:40:59;7.15;;;1.83;;
60847;SDS011;46681;47.696;9.140;2022-09-06T17:43:41;9.45;;;2.10;;
60847;SDS011;46681;47.696;9.140;2022-09-06T17:46:17;12.18;;;2.13;;
60847;SDS011;46681;47.696;9.140;2022-09-06T17:48:47;8.55;;;2.00;;
60847;SDS011;46681;47.696;9.140;2022-09-06T17:51:15;10.50;;;2.33;;
60847;SDS011;46681;47.696;9.140;2022-09-06T17:53:48;10.05;;;2.20;;
60847;SDS011;46681;47.696;9.140;2022-09-06T17:56:16;9.85;;;2.10;;
60847;SDS011;46681;47.696;9.140;2022-09-06T17:58:52;6.43;;;2.00;;
60847;SDS011;46681;47.696;9.140;2022-09-06T18:01:36;9.00;;;2.10;;
60847;SDS011;46681;47.696;9.140;2022-09-06T18:04:08;7.22;;;2.00;;
60847;SDS011;46681;47.696;9.140;2022-09-06T18:06:46;9.52;;;1.95;;
60847;SDS011;46681;47.696;9.140;2022-09-06T18:09:13;6.93;;;1.90;;
60847;SDS011;46681;47.696;9.140;2022-09-06T18:11:52;6.85;;;2.00;;
60847;SDS011;46681;47.696;9.140;2022-09-06T18:14:24;6.57;;;2.00;;
60847;SDS011;46681;47.696;9.140;2022-09-06T18:16:59;7.07;;;1.80;;
60847;SDS011;46681;47.696;9.140;2022-09-06T18:19:32;6.68;;;1.90;;
60847;SDS011;46681;47.696;9.140;2022-09-06T18:22:03;8.68;;;2.13;;
60847;SDS011;46681;47.696;9.140;2022-09-06T18:24:29;7.32;;;1.80;;
60847;SDS011;46681;47.696;9.140;2022-09-06T18:26:57;6.93;;;1.90;;
60847;SDS011;46681;47.696;9.140;2022-09-06T18:29:24;9.25;;;2.30;;
60847;SDS011;46681;47.696;9.140;2022-09-06T18:32:20;7.20;;;2.03;;
60847;SDS011;46681;47.696;9.140;2022-09-06T18:34:51;6.18;;;2.00;;
60847;SDS011;46681;47.696;9.140;2022-09-06T18:40:16;7.38;;;2.10;;
60847;SDS011;46681;47.696;9.140;2022-09-06T18:45:30;6.53;;;1.92;;
60847;SDS011;46681;47.696;9.140;2022-09-06T18:48:05;8.85;;;2.13;;
60847;SDS011;46681;47.696;9.140;2022-09-06T18:50:37;8.88;;;2.15;;
60847;SDS011;46681;47.696;9.140;2022-09-06T18:53:03;6.68;;;2.00;;
60847;SDS011;46681;47.696;9.140;2022-09-06T18:55:39;8.88;;;2.10;;
60847;SDS011;46681;47.696;9.140;2022-09-06T18:58:05;7.85;;;2.22;;
60847;SDS011;46681;47.696;9.140;2022-09-06T19:00:35;7.93;;;2.08;;
60847;SDS011;46681;47.696;9.140;2022-09-06T19:03:17;6.97;;;1.80;;
60847;SDS011;46681;47.696;9.140;2022-09-06T19:06:01;7.60;;;2.00;;
60847;SDS011;46681;47.696;9.140;2022-09-06T19:08:43;7.82;;;1.77;;
60847;SDS011;46681;47.696;9.140;2022-09-06T19:11:28;7.80;;;2.10;;
60847;SDS011;46681;47.696;9.140;2022-09-06T19:13:59;8.57;;;2.47;;
60847;SDS011;46681;47.696;9.140;2022-09-06T19:16:44;9.60;;;2.25;;
60847;SDS011;46681;47.696;9.140;2022-09-06T19:19:12;9.40;;;2.42;;
60847;SDS011;46681;47.696;9.140;2022-09-06T19:21:38;7.68;;;2.00;;
60847;SDS011;46681;47.696;9.140;2022-09-06T19:24:24;7.85;;;2.08;;
60847;SDS011;46681;47.696;9.140;2022-09-06T19:26:53;7.32;;;2.05;;
60847;SDS011;46681;47.696;9.140;2022-09-06T19:29:27;7.75;;;2.20;;
60847;SDS011;46681;47.696;9.140;2022-09-06T19:31:55;7.85;;;2.20;;
60847;SDS011;46681;47.696;9.140;2022-09-06T19:34:23;11.13;;;2.20;;
60847;SDS011;46681;47.696;9.140;2022-09-06T19:36:55;6.15;;;1.90;;
60847;SDS011;46681;47.696;9.140;2022-09-06T19:39:25;7.82;;;1.85;;
60847;SDS011;46681;47.696;9.140;2022-09-06T19:41:56;7.80;;;2.20;;
60847;SDS011;46681;47.696;9.140;2022-09-06T19:47:25;7.43;;;2.13;;
60847;SDS011;46681;47.696;9.140;2022-09-06T19:49:54;8.10;;;2.00;;
60847;SDS011;46681;47.696;9.140;2022-09-06T19:52:23;8.80;;;2.10;;
60847;SDS011;46681;47.696;9.140;2022-09-06T19:54:55;8.05;;;2.38;;
60847;SDS011;46681;47.696;9.140;2022-09-06T19:57:23;9.80;;;2.17;;
60847;SDS011;46681;47.696;9.140;2022-09-06T19:59:53;7.75;;;2.10;;
60847;SDS011;46681;47.696;9.140;2022-09-06T20:02:20;7.15;;;2.17;;
60847;SDS011;46681;47.696;9.140;2022-09-06T20:04:50;9.57;;;2.45;;
60847;SDS011;46681;47.696;9.140;2022-09-06T20:07:17;6.95;;;2.20;;
60847;SDS011;46681;47.696;9.140;2022-09-06T20:09:53;8.45;;;2.10;;
60847;SDS011;46681;47.696;9.140;2022-09-06T20:12:24;7.13;;;2.38;;
60847;SDS011;46681;47.696;9.140;2022-09-06T20:14:50;6.53;;;2.00;;
60847;SDS011;46681;47.696;9.140;2022-09-06T20:17:21;8.10;;;1.92;;
60847;SDS011;46681;47.696;9.140;2022-09-06T20:19:48;8.10;;;2.00;;
60847;SDS011;46681;47.696;9.140;2022-09-06T20:22:13;7.95;;;2.10;;
60847;SDS011;46681;47.696;9.140;2022-09-06T20:24:44;7.78;;;2.10;;
60847;SDS011;46681;47.696;9.140;2022-09-06T20:27:12;7.22;;;2.08;;
60847;SDS011;46681;47.696;9.140;2022-09-06T20:29:49;6.90;;;2.08;;
60847;SDS011;46681;47.696;9.140;2022-09-06T20:32:18;7.00;;;1.80;;
60847;SDS011;46681;47.696;9.140;2022-09-06T20:34:46;5.82;;;1.90;;
60847;SDS011;46681;47.696;9.140;2022-09-06T20:37:25;8.43;;;2.10;;
60847;SDS011;46681;47.696;9.140;2022-09-06T20:39:53;8.38;;;2.28;;
60847;SDS011;46681;47.696;9.140;2022-09-06T20:42:22;6.90;;;1.90;;